KGLY

Details ICAO KGLY
Name CLINTON MEM
Region United States
Timezone America/Chicago (UTC-6.0)
Plans Departing 1
Arriving 5
Stats Elevation 822 ft / 251 m (AMSL)
Location 38.356574° -93.684178°
Runways 1
Magnetic Variation 1.057° E
Sunrise 2017-12-11 13:23:19 UTC / 2017-12-11 07:23:19 Local
Sunset 2017-12-11 22:55:49 UTC / 2017-12-11 16:55:49 Local
Advertisement - Login to hide

Runways

ID Width Length Bearing (true) Bearing (mag) Surface Threshold Offset Overrun Length
04 60 ft / 18 m 4,000 ft / 1,219 m 44.83° 43.77° Asphalt 0 ft / 0 m 0 ft / 0 m
22 60 ft / 18 m 4,000 ft / 1,219 m 224.83° 223.77° Asphalt 0 ft / 0 m 0 ft / 0 m

Map

Weather


0- 5 10 15 20 25 30 35+ Temperature / ° C

Clouds and Precipitation
Forecast for 2017-12-11 18:00 UTC. Updated 12 minutes ago

Ground ~20,000 ft ~40,000 ft Winds

METAR

KGLY 111335Z AUTO 23009KT 9SM CLR 02/M05 A2998 RMK AO2

TAF

Not found

Frequencies

Unicom 122.80 MHz CTAF/UNICOM
Departure 125.92 MHz WHITEMAN DEP
Approach 127.45 MHz WHITEMAN APP
Warning: Do not use this data for real-world aviation or navigation. No guarantee of current accuracy is given.